DEHKP EDWN-EDWJ
Flight info
| Callsign | DEHKP |
|---|---|
| Flight time | N/A |
| Altitude | 2000 |
| Route | VFR |
| Aircraft | P28A/L-S/L |
Departure
| Time | 2026-04-28 14:59 |
|---|---|
| Airport | Flugplatz Nordhorn-Lingen (EDWN) |
Arrival
| Time | N/A |
|---|---|
| Airport | Juist Airport (EDWJ) |
| Time | Latitude | Longitude | Altitude | Speed | Heading |
|---|---|---|---|---|---|
| 2026-04-28 14:54 | 52.45741 | 7.17432 | 95 ft | 0 kts | 232° |
| 2026-04-28 14:54 | 52.45734 | 7.17430 | 95 ft | 1 kts | 160° |
| 2026-04-28 14:54 | 52.45712 | 7.17450 | 97 ft | 7 kts | 151° |
| 2026-04-28 14:55 | 52.45667 | 7.17488 | 96 ft | 8 kts | 155° |
| 2026-04-28 14:55 | 52.45621 | 7.17536 | 95 ft | 6 kts | 150° |
| 2026-04-28 14:55 | 52.45577 | 7.17575 | 95 ft | 9 kts | 151° |
| 2026-04-28 14:55 | 52.45540 | 7.17640 | 97 ft | 7 kts | 71° |
| 2026-04-28 14:56 | 52.45557 | 7.17697 | 97 ft | 4 kts | 108° |
| 2026-04-28 14:56 | 52.45535 | 7.17732 | 98 ft | 6 kts | 130° |
| 2026-04-28 14:56 | 52.45536 | 7.17773 | 98 ft | 0 kts | 56° |
| 2026-04-28 14:58 | 52.45541 | 7.17784 | 98 ft | 11 kts | 54° |
| 2026-04-28 14:58 | 52.45687 | 7.18123 | 117 ft | 55 kts | 54° |
| 2026-04-28 14:58 | 52.45924 | 7.18675 | 306 ft | 59 kts | 58° |
| 2026-04-28 14:59 | 52.46158 | 7.19165 | 619 ft | 54 kts | 59° |
| 2026-04-28 14:59 | 52.46414 | 7.19690 | 786 ft | 62 kts | 56° |
| 2026-04-28 14:59 | 52.46784 | 7.20143 | 959 ft | 67 kts | 34° |
| 2026-04-28 14:59 | 52.47235 | 7.20329 | 1190 ft | 69 kts | 25° |
| 2026-04-28 15:00 | 52.47676 | 7.20508 | 1510 ft | 63 kts | 28° |
| 2026-04-28 15:00 | 52.48133 | 7.20610 | 1733 ft | 69 kts | 20° |
| 2026-04-28 15:00 | 52.48628 | 7.20625 | 2001 ft | 73 kts | 17° |
| 2026-04-28 15:00 | 52.49145 | 7.20542 | 2250 ft | 77 kts | 9° |
| 2026-04-28 15:01 | 52.49677 | 7.20389 | 2458 ft | 79 kts | 4° |
| 2026-04-28 15:01 | 52.50220 | 7.20199 | 2659 ft | 79 kts | 5° |
| 2026-04-28 15:01 | 52.50752 | 7.20118 | 2870 ft | 77 kts | 12° |
| 2026-04-28 15:01 | 52.51295 | 7.20073 | 3059 ft | 79 kts | 10° |
| 2026-04-28 15:02 | 52.51843 | 7.20038 | 3254 ft | 79 kts | 13° |
| 2026-04-28 15:02 | 52.52376 | 7.20072 | 3449 ft | 76 kts | 18° |
| 2026-04-28 15:02 | 52.52936 | 7.20152 | 3512 ft | 87 kts | 18° |
| 2026-04-28 15:02 | 52.53547 | 7.20291 | 3530 ft | 91 kts | 20° |
| 2026-04-28 15:03 | 52.54190 | 7.20409 | 3548 ft | 95 kts | 17° |
| 2026-04-28 15:03 | 52.54855 | 7.20504 | 3532 ft | 97 kts | 17° |
| 2026-04-28 15:03 | 52.55536 | 7.20590 | 3481 ft | 102 kts | 15° |
| 2026-04-28 15:03 | 52.56267 | 7.20644 | 3453 ft | 103 kts | 13° |
| 2026-04-28 15:04 | 52.56969 | 7.20676 | 3460 ft | 102 kts | 14° |
| 2026-04-28 15:04 | 52.57673 | 7.20750 | 3451 ft | 101 kts | 16° |
| 2026-04-28 15:04 | 52.58373 | 7.20829 | 3452 ft | 100 kts | 16° |
| 2026-04-28 15:04 | 52.59057 | 7.20943 | 3475 ft | 99 kts | 18° |
| 2026-04-28 15:05 | 52.59730 | 7.21175 | 3514 ft | 98 kts | 22° |
| 2026-04-28 15:05 | 52.60395 | 7.21395 | 3513 ft | 97 kts | 22° |
| 2026-04-28 15:05 | 52.61061 | 7.21645 | 3499 ft | 99 kts | 19° |
| 2026-04-28 15:05 | 52.61750 | 7.21758 | 3491 ft | 99 kts | 16° |
| 2026-04-28 15:06 | 52.62420 | 7.21888 | 3501 ft | 95 kts | 19° |
| 2026-04-28 15:06 | 52.63079 | 7.22017 | 3517 ft | 96 kts | 19° |
| 2026-04-28 15:06 | 52.63744 | 7.22155 | 3499 ft | 96 kts | 20° |
| 2026-04-28 15:06 | 52.64405 | 7.22323 | 3477 ft | 97 kts | 21° |
| 2026-04-28 15:07 | 52.65064 | 7.22536 | 3534 ft | 96 kts | 21° |
| 2026-04-28 15:07 | 52.65724 | 7.22755 | 3551 ft | 98 kts | 24° |
| 2026-04-28 15:07 | 52.66398 | 7.22982 | 3584 ft | 99 kts | 21° |
| 2026-04-28 15:07 | 52.67069 | 7.23230 | 3586 ft | 100 kts | 24° |
| 2026-04-28 15:08 | 52.67732 | 7.23517 | 3583 ft | 99 kts | 25° |
| 2026-04-28 15:08 | 52.68397 | 7.23822 | 3577 ft | 99 kts | 26° |
| 2026-04-28 15:08 | 52.69050 | 7.24147 | 3591 ft | 96 kts | 27° |
| 2026-04-28 15:08 | 52.69680 | 7.24508 | 3577 ft | 94 kts | 31° |
| 2026-04-28 15:09 | 52.70291 | 7.24855 | 3603 ft | 93 kts | 27° |
| 2026-04-28 15:09 | 52.70912 | 7.25186 | 3585 ft | 94 kts | 28° |
| 2026-04-28 15:09 | 52.71538 | 7.25519 | 3586 ft | 94 kts | 26° |
| 2026-04-28 15:09 | 52.71956 | 7.25737 | 3599 ft | 93 kts | 29° |
| 2026-04-28 15:10 | 52.72744 | 7.26236 | 3590 ft | 94 kts | 26° |
| 2026-04-28 15:10 | 52.73378 | 7.26518 | 3586 ft | 94 kts | 25° |
| 2026-04-28 15:10 | 52.73812 | 7.26675 | 3602 ft | 96 kts | 20° |
| 2026-04-28 15:10 | 52.74485 | 7.26803 | 3612 ft | 99 kts | 17° |
| 2026-04-28 15:11 | 52.75164 | 7.26925 | 3620 ft | 98 kts | 17° |
| 2026-04-28 15:11 | 52.75832 | 7.27097 | 3598 ft | 97 kts | 20° |
| 2026-04-28 15:11 | 52.76478 | 7.27328 | 3586 ft | 96 kts | 22° |
| 2026-04-28 15:11 | 52.77127 | 7.27600 | 3594 ft | 96 kts | 25° |
| 2026-04-28 15:12 | 52.77767 | 7.27881 | 3628 ft | 95 kts | 23° |
| 2026-04-28 15:12 | 52.78447 | 7.28017 | 3596 ft | 101 kts | 15° |
| 2026-04-28 15:12 | 52.79145 | 7.28107 | 3564 ft | 101 kts | 16° |
| 2026-04-28 15:12 | 52.79842 | 7.28216 | 3554 ft | 102 kts | 16° |
| 2026-04-28 15:13 | 52.80553 | 7.28329 | 3558 ft | 103 kts | 15° |
| 2026-04-28 15:13 | 52.81255 | 7.28448 | 3558 ft | 100 kts | 16° |
| 2026-04-28 15:13 | 52.81944 | 7.28572 | 3544 ft | 100 kts | 13° |
| 2026-04-28 15:13 | 52.82629 | 7.28627 | 3522 ft | 99 kts | 15° |
| 2026-04-28 15:14 | 52.83311 | 7.28719 | 3506 ft | 98 kts | 17° |
| 2026-04-28 15:14 | 52.83987 | 7.28847 | 3548 ft | 98 kts | 17° |
| 2026-04-28 15:14 | 52.84670 | 7.28897 | 3558 ft | 100 kts | 12° |
| 2026-04-28 15:14 | 52.85370 | 7.28900 | 3548 ft | 102 kts | 10° |
| 2026-04-28 15:15 | 52.86086 | 7.28873 | 3532 ft | 102 kts | 11° |
| 2026-04-28 15:15 | 52.86790 | 7.28918 | 3512 ft | 101 kts | 12° |
| 2026-04-28 15:15 | 52.87494 | 7.28984 | 3541 ft | 102 kts | 12° |
| 2026-04-28 15:15 | 52.88205 | 7.29058 | 3500 ft | 103 kts | 16° |
| 2026-04-28 15:16 | 52.88913 | 7.29185 | 3505 ft | 104 kts | 16° |
| 2026-04-28 15:16 | 52.89604 | 7.29317 | 3635 ft | 97 kts | 17° |
| 2026-04-28 15:16 | 52.90286 | 7.29458 | 3694 ft | 99 kts | 18° |
| 2026-04-28 15:16 | 52.90929 | 7.29663 | 3864 ft | 91 kts | 21° |
| 2026-04-28 15:17 | 52.91540 | 7.29866 | 4037 ft | 89 kts | 22° |
| 2026-04-28 15:17 | 52.92141 | 7.30071 | 4191 ft | 87 kts | 22° |
| 2026-04-28 15:17 | 52.92728 | 7.30262 | 4336 ft | 85 kts | 24° |
| 2026-04-28 15:17 | 52.93304 | 7.30434 | 4519 ft | 82 kts | 22° |
| 2026-04-28 15:18 | 52.93857 | 7.30585 | 4693 ft | 79 kts | 23° |
| 2026-04-28 15:18 | 52.94400 | 7.30765 | 4811 ft | 80 kts | 25° |
| 2026-04-28 15:18 | 52.94944 | 7.30970 | 5014 ft | 78 kts | 25° |
| 2026-04-28 15:18 | 52.95499 | 7.31207 | 5060 ft | 88 kts | 28° |
| 2026-04-28 15:19 | 52.96112 | 7.31530 | 5055 ft | 97 kts | 31° |
| 2026-04-28 15:19 | 52.96766 | 7.31901 | 5071 ft | 102 kts | 29° |
| 2026-04-28 15:19 | 52.97459 | 7.32276 | 5067 ft | 107 kts | 28° |
| 2026-04-28 15:19 | 52.98182 | 7.32627 | 5054 ft | 110 kts | 27° |
| 2026-04-28 15:20 | 52.98905 | 7.33036 | 5066 ft | 110 kts | 28° |
| 2026-04-28 15:20 | 52.99636 | 7.33447 | 5047 ft | 111 kts | 30° |
| 2026-04-28 15:20 | 53.00372 | 7.33887 | 4981 ft | 114 kts | 29° |
| 2026-04-28 15:20 | 53.01121 | 7.34334 | 4959 ft | 113 kts | 31° |